Time;durP1;ratioP1;P1;durP2;ratioP2;P2;SDS_P1;SDS_P2;PMS_P1;PMS_P2;Temp;Humidity;BMP_temperature;BMP_pressure;BME280_temperature;BME280_humidity;BME280_pressure;Samples;Min_cycle;Max_cycle;Signal;HPM_P1;HPM_P2
2024/03/10 00:00:20;;;;;;;76.37;43.03;;;;;;;3.48;100.00;100189.69;1464655;88;22204;-76
2024/03/10 00:02:44;;;;;;;67.57;40.40;;;;;;;3.48;100.00;100187.07;1478228;88;22203;-76
2024/03/10 00:05:13;;;;;;;72.63;42.73;;;;;;;3.48;100.00;100194.48;1472042;88;22921;-76
2024/03/10 00:07:46;;;;;;;75.17;42.80;;;;;;;3.48;100.00;100194.48;1469321;88;22285;-76
2024/03/10 00:10:18;;;;;;;71.07;43.40;;;;;;;3.50;100.00;100196.97;1473737;88;22158;-77
2024/03/10 00:12:48;;;;;;;72.03;42.90;;;;;;;3.50;100.00;100190.42;1472259;88;22092;-76
2024/03/10 00:15:16;;;;;;;78.37;44.57;;;;;;;3.48;100.00;100191.86;1462538;88;22047;-76
2024/03/10 00:17:43;;;;;;;81.23;46.73;;;;;;;3.47;100.00;100193.26;1462308;88;22248;-76
2024/03/10 00:20:12;;;;;;;80.70;45.80;;;;;;;3.48;100.00;100191.86;1476955;88;22118;-76
2024/03/10 00:22:41;;;;;;;81.60;44.33;;;;;;;3.48;100.00;100186.63;1470207;88;22094;-75
2024/03/10 00:25:09;;;;;;;76.43;44.20;;;;;;;3.48;100.00;100186.63;1457908;88;22228;-77
2024/03/10 00:27:37;;;;;;;82.57;46.90;;;;;;;3.48;100.00;100184.01;1473749;88;22063;-76
2024/03/10 00:30:09;;;;;;;88.90;48.07;;;;;;;3.49;100.00;100185.67;1462354;88;23086;-76
2024/03/10 00:32:37;;;;;;;79.40;46.20;;;;;;;3.47;100.00;100182.80;1467821;88;22090;-76
2024/03/10 00:35:06;;;;;;;83.77;47.30;;;;;;;3.46;100.00;100174.11;1465387;88;22220;-77
2024/03/10 00:37:34;;;;;;;90.87;51.90;;;;;;;3.48;100.00;100177.91;1464018;88;22252;-76
2024/03/10 00:40:07;;;;;;;84.93;50.57;;;;;;;3.48;100.00;100172.23;1468402;88;22240;-77
2024/03/10 00:42:35;;;;;;;72.00;42.47;;;;;;;3.50;100.00;100171.63;1463562;88;22126;-76
2024/03/10 00:45:02;;;;;;;81.90;47.60;;;;;;;3.52;100.00;100154.41;1460683;88;23007;-77
2024/03/10 00:47:29;;;;;;;70.37;42.93;;;;;;;3.53;100.00;100154.41;1463765;88;22072;-76
2024/03/10 00:49:56;;;;;;;67.87;41.10;;;;;;;3.58;100.00;100160.16;1465207;88;22085;-76
2024/03/10 00:52:23;;;;;;;77.27;44.50;;;;;;;3.59;100.00;100151.83;1463544;88;22136;-76
2024/03/10 00:54:51;;;;;;;72.50;41.13;;;;;;;3.61;100.00;100153.87;1470585;88;22166;-76
2024/03/10 00:57:18;;;;;;;67.70;41.33;;;;;;;3.63;100.00;100155.91;1473307;88;22063;-76
2024/03/10 00:59:45;;;;;;;65.10;38.67;;;;;;;3.66;100.00;100152.24;1471777;88;23037;-76
2024/03/10 01:02:13;;;;;;;64.00;38.67;;;;;;;3.68;100.00;100152.95;1470877;88;22081;-76
2024/03/10 01:04:40;;;;;;;60.93;37.43;;;;;;;3.68;100.00;100156.39;1477328;88;23095;-76
2024/03/10 01:07:07;;;;;;;65.23;38.40;;;;;;;3.71;100.00;100155.34;1480388;88;22142;-76
2024/03/10 01:09:35;;;;;;;74.33;40.17;;;;;;;3.72;100.00;100151.32;1468981;88;22220;-75
2024/03/10 01:12:02;;;;;;;66.33;38.03;;;;;;;3.77;100.00;100151.83;1472290;88;22112;-75
2024/03/10 01:14:30;;;;;;;59.63;36.97;;;;;;;3.77;100.00;100153.14;1475396;88;22074;-75
2024/03/10 01:16:58;;;;;;;57.60;36.30;;;;;;;3.78;100.00;100153.97;1472067;88;22234;-76
2024/03/10 01:19:26;;;;;;;62.97;35.97;;;;;;;3.79;100.00;100151.70;1466412;88;22170;-76
2024/03/10 01:21:53;;;;;;;67.27;37.53;;;;;;;3.78;100.00;100142.19;1466900;88;22160;-76
2024/03/10 01:24:21;;;;;;;71.17;39.53;;;;;;;3.76;100.00;100133.60;1463395;88;22002;-76
2024/03/10 01:26:48;;;;;;;66.87;39.40;;;;;;;3.74;100.00;100127.63;1469746;88;22220;-76
2024/03/10 01:29:18;;;;;;;76.30;44.67;;;;;;;3.75;100.00;100130.63;1466717;88;22091;-76
2024/03/10 01:31:46;;;;;;;71.27;40.27;;;;;;;3.73;100.00;100132.52;1464498;88;22144;-76
2024/03/10 01:34:16;;;;;;;71.37;44.40;;;;;;;3.70;100.00;100134.05;1443497;88;23062;-76
2024/03/10 01:36:43;;;;;;;68.80;40.80;;;;;;;3.72;100.00;100138.70;1473725;88;23001;-76
2024/03/10 01:39:10;;;;;;;72.70;41.53;;;;;;;3.74;100.00;100141.58;1465601;88;22165;-76
2024/03/10 01:41:37;;;;;;;66.30;40.70;;;;;;;3.75;100.00;100140.62;1473452;88;22228;-76
2024/03/10 01:44:08;;;;;;;71.37;40.03;;;;;;;3.77;100.00;100141.80;1471467;88;23104;-76
2024/03/10 01:46:37;;;;;;;78.17;41.67;;;;;;;3.78;100.00;100140.88;1468811;88;22225;-76
2024/03/10 01:49:05;;;;;;;69.23;38.73;;;;;;;3.80;100.00;100139.00;1460262;88;22218;-76
2024/03/10 01:51:35;;;;;;;66.93;39.73;;;;;;;3.84;100.00;100139.13;1465399;88;22054;-76
2024/03/10 01:54:02;;;;;;;69.27;36.93;;;;;;;3.87;100.00;100145.92;1467200;88;22143;-76
2024/03/10 01:56:30;;;;;;;65.80;40.43;;;;;;;3.87;100.00;100149.37;1465364;88;22231;-76
2024/03/10 01:58:57;;;;;;;67.63;37.30;;;;;;;3.88;100.00;100152.82;1474297;88;22128;-76
2024/03/10 02:01:27;;;;;;;66.73;37.30;;;;;;;3.85;100.00;100146.02;1462982;88;23161;-75
2024/03/10 02:03:55;;;;;;;64.23;39.23;;;;;;;3.84;100.00;100146.98;1470127;88;23125;-76
2024/03/10 02:06:22;;;;;;;58.23;36.47;;;;;;;3.83;100.00;100140.91;1463937;88;22236;-76
2024/03/10 02:08:51;;;;;;;56.53;32.93;;;;;;;3.82;100.00;100135.30;1471146;88;23083;-75
2024/03/10 02:11:20;;;;;;;58.00;31.60;;;;;;;3.82;100.00;100139.70;1455789;88;22185;-77
2024/03/10 02:13:47;;;;;;;51.60;32.00;;;;;;;3.78;100.00;100137.78;1456262;88;22254;-76
2024/03/10 02:16:15;;;;;;;51.73;32.73;;;;;;;3.73;100.00;100138.58;1463544;88;22059;-76
2024/03/10 02:18:43;;;;;;;58.10;31.77;;;;;;;3.71;100.00;100131.78;1460781;88;22874;-76
2024/03/10 02:21:11;;;;;;;59.80;33.83;;;;;;;3.73;100.00;100135.14;1461905;88;22983;-76
2024/03/10 02:24:02;;;;;;;53.93;31.67;;;;;;;3.74;100.00;100134.17;1469632;88;22096;-77
2024/03/10 02:26:36;;;;;;;54.15;30.65;;;;;;;3.75;100.00;100138.48;1471628;88;22205;-76
2024/03/10 02:29:15;;;;;;;47.23;31.13;;;;;;;3.75;100.00;100135.39;1472453;88;21493;-76
2024/03/10 02:48:23;;;;;;;49.33;32.13;;;;;;;3.74;100.00;100142.89;1461415;88;22124;-76
2024/03/10 02:50:51;;;;;;;50.93;31.67;;;;;;;3.76;100.00;100143.59;1470163;88;22195;-75
2024/03/10 02:53:18;;;;;;;51.30;32.20;;;;;;;3.75;100.00;100136.70;1466329;88;22074;-76
2024/03/10 02:55:45;;;;;;;52.63;32.93;;;;;;;3.77;100.00;100141.36;1458833;88;22148;-76
2024/03/10 02:58:12;;;;;;;52.83;32.20;;;;;;;3.76;100.00;100128.37;1470921;88;22042;-75
2024/03/10 03:00:40;;;;;;;49.30;29.73;;;;;;;3.72;100.00;100129.55;1470516;88;22103;-76
2024/03/10 03:03:10;;;;;;;51.40;31.93;;;;;;;3.69;100.00;100120.61;1454479;88;22199;-75
2024/03/10 03:05:39;;;;;;;50.63;30.27;;;;;;;3.66;100.00;100119.53;1470351;88;22088;-75
2024/03/10 03:08:07;;;;;;;54.17;31.60;;;;;;;3.64;100.00;100117.48;1471136;88;21427;-75
2024/03/10 03:10:36;;;;;;;55.43;32.70;;;;;;;3.64;100.00;100116.17;1471118;88;22168;-76
2024/03/10 03:13:04;;;;;;;57.27;32.83;;;;;;;3.63;100.00;100114.52;1466695;88;23050;-76
2024/03/10 03:15:31;;;;;;;59.47;35.20;;;;;;;3.59;100.00;100113.40;1468956;88;22991;-76
2024/03/10 03:17:58;;;;;;;54.43;31.57;;;;;;;3.55;100.00;100111.97;1471551;88;22001;-76
2024/03/10 03:20:26;;;;;;;46.63;29.83;;;;;;;3.52;100.00;100111.36;1454880;88;22080;-76
2024/03/10 03:22:53;;;;;;;53.10;33.00;;;;;;;3.49;100.00;100111.09;1469757;88;22399;-75
2024/03/10 03:25:20;;;;;;;51.93;31.57;;;;;;;3.48;100.00;100107.27;1463422;88;22146;-76
2024/03/10 03:27:50;;;;;;;50.57;30.53;;;;;;;3.46;100.00;100110.02;1452177;88;22058;-75
2024/03/10 03:30:18;;;;;;;52.23;29.80;;;;;;;3.46;100.00;100109.18;1470486;88;22937;-76
2024/03/10 03:32:45;;;;;;;50.83;29.33;;;;;;;3.43;100.00;100106.31;1471469;88;22236;-76
2024/03/10 03:35:15;;;;;;;50.60;30.80;;;;;;;3.42;100.00;100103.31;1469908;88;23028;-75
2024/03/10 03:37:43;;;;;;;44.00;27.97;;;;;;;3.39;100.00;100099.61;1462623;88;23239;-75
2024/03/10 03:40:13;;;;;;;50.13;29.60;;;;;;;3.34;100.00;100092.58;1468708;88;22079;-76
2024/03/10 03:42:40;;;;;;;47.17;28.57;;;;;;;3.34;100.00;100097.81;1470215;88;22090;-76
2024/03/10 03:45:09;;;;;;;63.30;33.73;;;;;;;3.31;100.00;100100.17;1466142;88;22198;-76
2024/03/10 03:47:36;;;;;;;57.50;31.23;;;;;;;3.31;100.00;100094.08;1469160;88;22288;-76
2024/03/10 03:50:05;;;;;;;49.17;29.53;;;;;;;3.30;100.00;100100.27;1466406;88;22140;-76
2024/03/10 03:52:32;;;;;;;48.10;29.03;;;;;;;3.29;100.00;100097.30;1469546;88;23182;-76
2024/03/10 03:55:00;;;;;;;51.93;29.03;;;;;;;3.25;100.00;100093.21;1470446;88;22006;-76
2024/03/10 03:57:28;;;;;;;48.17;28.97;;;;;;;3.27;100.00;100096.56;1469671;88;23189;-76
2024/03/10 03:59:55;;;;;;;50.90;30.87;;;;;;;3.27;100.00;100101.80;1467806;88;22094;-76
2024/03/10 04:02:25;;;;;;;45.50;29.53;;;;;;;3.27;100.00;100102.63;1450357;88;22981;-76
2024/03/10 04:04:54;;;;;;;49.20;30.35;;;;;;;3.30;100.00;100097.66;1468026;88;22080;-75
2024/03/10 04:07:21;;;;;;;56.10;30.30;;;;;;;3.31;100.00;100093.64;1461952;88;21575;-76
2024/03/10 04:09:48;;;;;;;50.13;27.77;;;;;;;3.31;100.00;100087.54;1464503;88;22103;-76
2024/03/10 04:12:16;;;;;;;47.63;27.17;;;;;;;3.31;100.00;100088.85;1467819;88;22346;-76
2024/03/10 04:14:43;;;;;;;46.53;28.93;;;;;;;3.19;100.00;100085.80;1470505;88;22093;-75
2024/03/10 04:17:10;;;;;;;45.73;28.47;;;;;;;3.19;100.00;100085.80;1452783;88;22117;-76
2024/03/10 04:19:38;;;;;;;54.97;30.43;;;;;;;3.19;100.00;100094.95;1451664;88;23032;-76
2024/03/10 04:22:09;;;;;;;53.83;32.23;;;;;;;3.16;100.00;100093.39;1467100;88;22228;-75
2024/03/10 04:24:34;;;;;;;48.43;30.30;;;;;;;3.17;100.00;100095.08;1447695;88;22148;-76
2024/03/10 04:27:02;;;;;;;45.60;28.17;;;;;;;3.19;100.00;100085.80;1468816;88;22019;-76
2024/03/10 04:29:29;;;;;;;50.57;29.67;;;;;;;3.22;100.00;100088.20;1471350;88;22079;-75
2024/03/10 04:31:56;;;;;;;46.13;27.37;;;;;;;3.15;100.00;100081.27;1471993;88;22244;-75
2024/03/10 04:34:23;;;;;;;44.47;27.73;;;;;;;3.19;100.00;100087.95;1465166;88;23003;-76
2024/03/10 04:36:51;;;;;;;46.33;27.97;;;;;;;3.21;100.00;100093.91;1471228;88;22263;-76
2024/03/10 04:39:20;;;;;;;49.70;28.93;;;;;;;3.25;100.00;100094.52;1465438;88;23070;-76
2024/03/10 04:41:47;;;;;;;47.73;28.67;;;;;;;3.23;100.00;100088.59;1470762;88;22302;-76
2024/03/10 04:44:15;;;;;;;51.10;29.87;;;;;;;3.29;100.00;100093.38;1476377;88;23012;-76
2024/03/10 04:46:42;;;;;;;49.83;29.80;;;;;;;3.32;100.00;100094.47;1467604;88;22103;-76
2024/03/10 04:49:10;;;;;;;44.00;28.27;;;;;;;3.32;100.00;100094.47;1471382;88;22207;-76
2024/03/10 04:51:41;;;;;;;53.53;30.70;;;;;;;3.32;100.00;100103.14;1451035;88;22146;-76
2024/03/10 04:54:09;;;;;;;46.00;27.37;;;;;;;3.37;100.00;100106.75;1457110;88;22139;-78
2024/03/10 04:56:36;;;;;;;48.70;29.50;;;;;;;3.39;100.00;100113.55;1472838;88;22099;-79
2024/03/10 04:59:05;;;;;;;52.30;29.67;;;;;;;3.42;100.00;100111.16;1465743;88;22139;-78
2024/03/10 05:01:33;;;;;;;49.07;29.07;;;;;;;3.39;100.00;100112.24;1469325;88;22275;-78
2024/03/10 05:04:00;;;;;;;53.60;31.30;;;;;;;3.45;100.00;100117.48;1470101;88;22117;-78
2024/03/10 05:06:27;;;;;;;56.17;33.60;;;;;;;3.48;100.00;100119.05;1470815;88;22246;-78
2024/03/10 05:08:55;;;;;;;48.60;28.37;;;;;;;3.52;100.00;100120.03;1467076;88;23657;-78
2024/03/10 05:11:22;;;;;;;55.13;30.97;;;;;;;3.54;100.00;100118.16;1469970;88;22231;-78
2024/03/10 05:13:49;;;;;;;49.83;29.00;;;;;;;3.55;100.00;100118.50;1469786;88;23128;-79
2024/03/10 05:16:17;;;;;;;57.70;32.37;;;;;;;3.57;100.00;100117.93;1469601;88;22235;-78
2024/03/10 05:18:44;;;;;;;46.63;29.50;;;;;;;3.61;100.00;100114.13;1465921;88;22067;-79
2024/03/10 05:21:11;;;;;;;48.90;31.47;;;;;;;3.65;100.00;100113.91;1475792;88;23019;-78
2024/03/10 05:23:39;;;;;;;48.47;30.63;;;;;;;3.73;100.00;100111.09;1452417;88;22175;-79
2024/03/10 05:26:06;;;;;;;44.33;28.47;;;;;;;3.73;100.00;100111.09;1465331;88;21427;-78
2024/03/10 05:28:33;;;;;;;48.07;28.73;;;;;;;3.76;100.00;100107.42;1472466;88;22712;-79
2024/03/10 05:31:00;;;;;;;41.77;26.83;;;;;;;3.78;100.00;100099.00;1469244;88;22362;-78
2024/03/10 05:33:28;;;;;;;40.03;26.70;;;;;;;3.81;100.00;100098.77;1469863;88;22203;-78
2024/03/10 05:35:55;;;;;;;47.77;27.93;;;;;;;3.82;100.00;100097.81;1466082;88;23019;-78
2024/03/10 05:38:22;;;;;;;36.60;22.97;;;;;;;3.87;100.00;100102.24;1462179;88;22086;-78
2024/03/10 05:40:49;;;;;;;40.67;23.20;;;;;;;3.87;100.00;100102.24;1470886;88;22560;-78
2024/03/10 05:43:17;;;;;;;37.83;24.83;;;;;;;3.90;100.00;100104.63;1471956;88;22210;-77
2024/03/10 05:45:44;;;;;;;39.90;22.87;;;;;;;3.96;100.00;100098.11;1467531;88;22092;-78
2024/03/10 05:48:12;;;;;;;38.20;22.47;;;;;;;3.96;100.00;100098.11;1468502;88;21464;-78
2024/03/10 05:50:39;;;;;;;34.40;22.30;;;;;;;4.03;100.00;100109.34;1466307;88;23001;-77
2024/03/10 05:53:06;;;;;;;32.87;21.53;;;;;;;4.06;100.00;100105.19;1472862;88;22252;-78
2024/03/10 05:55:33;;;;;;;34.67;22.10;;;;;;;4.09;100.00;100102.81;1467064;88;22053;-77
2024/03/10 05:58:00;;;;;;;34.17;21.20;;;;;;;4.16;100.00;100087.47;1472349;88;22167;-78
2024/03/10 06:00:31;;;;;;;36.53;21.63;;;;;;;4.19;100.00;100099.85;1472411;88;21390;-77
2024/03/10 06:02:57;;;;;;;35.10;21.53;;;;;;;4.24;100.00;100105.59;1453061;88;22357;-78
2024/03/10 06:05:24;;;;;;;35.70;21.80;;;;;;;4.24;100.00;100105.59;1465446;88;21353;-77
2024/03/10 06:07:52;;;;;;;41.40;22.53;;;;;;;4.30;100.00;100106.91;1452593;88;22143;-78
2024/03/10 06:10:21;;;;;;;33.23;21.43;;;;;;;4.35;100.00;100099.55;1464595;88;21576;-78
2024/03/10 06:12:48;;;;;;;37.53;22.73;;;;;;;4.47;100.00;100107.78;1472722;88;21545;-76
2024/03/10 06:15:16;;;;;;;34.40;20.63;;;;;;;4.58;100.00;100110.09;1469417;88;21409;-75
2024/03/10 06:18:02;;;;;;;32.63;21.63;;;;;;;4.69;100.00;100110.07;1468003;88;22404;-77
2024/03/10 06:25:44;;;;;;;32.40;20.60;;;;;;;5.00;100.00;100111.64;1472137;88;21419;-78
2024/03/10 06:28:11;;;;;;;32.53;21.30;;;;;;;5.11;100.00;100115.58;1470618;88;21553;-77
2024/03/10 06:30:40;;;;;;;31.77;19.53;;;;;;;5.20;100.00;100116.99;1466899;88;21412;-78
2024/03/10 06:33:07;;;;;;;32.73;19.33;;;;;;;5.31;100.00;100114.84;1471988;88;22240;-77
2024/03/10 06:35:35;;;;;;;33.97;20.97;;;;;;;5.42;100.00;100120.08;1473941;88;21375;-77
2024/03/10 06:38:03;;;;;;;38.87;22.77;;;;;;;5.55;100.00;100117.32;1473436;88;21470;-80
2024/03/10 06:40:30;;;;;;;34.70;20.93;;;;;;;5.64;100.00;100118.37;1469019;88;21811;-80
2024/03/10 06:42:57;;;;;;;37.93;22.87;;;;;;;5.75;100.00;100122.25;1472286;88;22418;-80
2024/03/10 06:45:25;;;;;;;33.97;21.47;;;;;;;5.88;100.00;100126.88;1457162;88;21354;-77
2024/03/10 06:47:53;;;;;;;34.73;20.47;;;;;;;6.00;100.00;100130.81;1475110;88;21295;-77
2024/03/10 06:50:20;;;;;;;29.10;19.00;;;;;;;6.09;100.00;100133.51;1443190;88;21397;-77
2024/03/10 06:52:47;;;;;;;30.77;18.03;;;;;;;6.20;100.00;100140.52;1472342;88;21316;-77
2024/03/10 06:55:15;;;;;;;29.30;16.57;;;;;;;6.33;100.00;100137.73;1467705;88;21515;-77
2024/03/10 06:57:42;;;;;;;28.37;17.63;;;;;;;6.48;100.00;100133.80;1469740;88;22632;-77
2024/03/10 07:00:12;;;;;;;27.67;17.70;;;;;;;6.63;100.00;100131.69;1469062;88;21368;-77
2024/03/10 07:02:45;;;;;;;29.73;17.97;;;;;;;6.79;100.00;100125.97;1457742;88;21412;-77
2024/03/10 07:05:14;;;;;;;27.13;17.43;;;;;;;6.94;100.00;100129.09;1475225;88;21361;-77
2024/03/10 07:07:42;;;;;;;24.97;16.13;;;;;;;7.05;100.00;100122.42;1469736;88;21331;-77
2024/03/10 07:10:13;;;;;;;27.37;16.83;;;;;;;7.14;100.00;100128.20;1471160;88;21487;-77
2024/03/10 07:12:40;;;;;;;31.20;17.50;;;;;;;7.21;100.00;100125.86;1458397;88;21398;-77
2024/03/10 07:15:09;;;;;;;26.67;17.33;;;;;;;7.26;100.00;100126.79;1462876;88;21376;-77
2024/03/10 07:17:40;;;;;;;28.67;15.17;;;;;;;7.29;100.00;100122.57;1469326;88;22403;-77
2024/03/10 07:20:09;;;;;;;23.20;13.25;;;;;;;7.34;100.00;100123.01;1467973;88;21331;-77
2024/03/10 07:22:38;;;;;;;22.87;14.00;;;;;;;7.38;100.00;100124.39;1475016;88;21331;-77
2024/03/10 07:25:07;;;;;;;21.27;14.73;;;;;;;7.44;100.00;100129.11;1466582;88;21398;-76
2024/03/10 07:27:35;;;;;;;22.77;14.57;;;;;;;7.48;100.00;100127.89;1471788;88;22306;-77
2024/03/10 07:30:04;;;;;;;22.00;14.20;;;;;;;7.55;100.00;100129.50;1463009;88;21559;-77
2024/03/10 07:32:32;;;;;;;22.87;14.60;;;;;;;7.63;100.00;100129.16;1472260;88;21354;-78
2024/03/10 07:35:00;;;;;;;31.93;17.87;;;;;;;7.67;100.00;100133.18;1473329;88;21531;-77
2024/03/10 07:37:28;;;;;;;32.50;19.77;;;;;;;7.74;100.00;100133.95;1472647;88;22188;-77
2024/03/10 07:39:55;;;;;;;31.77;19.60;;;;;;;7.78;100.00;100136.19;1466125;88;21368;-77
2024/03/10 07:42:25;;;;;;;33.23;20.53;;;;;;;7.87;100.00;100143.76;1479332;88;21374;-77
2024/03/10 07:44:53;;;;;;;35.63;20.57;;;;;;;7.93;100.00;100148.47;1470850;88;22370;-77
2024/03/10 07:47:21;;;;;;;29.73;19.17;;;;;;;7.97;100.00;100150.34;1473173;88;21375;-77
2024/03/10 07:49:48;;;;;;;44.83;21.00;;;;;;;8.02;100.00;100145.01;1460991;88;21316;-77
2024/03/10 07:52:16;;;;;;;32.13;20.00;;;;;;;8.11;100.00;100148.16;1470328;88;21673;-77
2024/03/10 07:54:43;;;;;;;37.73;21.77;;;;;;;8.18;100.00;100143.16;1470953;88;21567;-77
2024/03/10 07:57:10;;;;;;;27.57;18.07;;;;;;;8.26;100.00;100145.93;1472816;88;21449;-77
2024/03/10 07:59:37;;;;;;;26.73;17.17;;;;;;;8.31;100.00;100143.68;1467974;88;21419;-78
2024/03/10 08:02:05;;;;;;;28.40;17.27;;;;;;;8.41;100.00;100136.30;1473013;88;21539;-77
2024/03/10 08:04:35;;;;;;;24.53;16.47;;;;;;;8.50;100.00;100142.05;1476302;88;21487;-78
2024/03/10 08:07:02;;;;;;;26.37;17.80;;;;;;;8.56;100.00;100137.03;1471220;88;22350;-81
2024/03/10 08:09:29;;;;;;;29.43;16.67;;;;;;;8.62;100.00;100144.04;1459077;88;21419;-75
2024/03/10 08:11:58;;;;;;;25.50;16.00;;;;;;;8.64;100.00;100136.82;1468478;88;21361;-77
2024/03/10 08:14:25;;;;;;;24.67;16.10;;;;;;;8.66;100.00;100142.77;1467268;88;21420;-78
2024/03/10 08:16:52;;;;;;;28.47;18.63;;;;;;;8.68;100.00;100138.19;1470329;88;21346;-77
2024/03/10 08:19:20;;;;;;;27.13;17.73;;;;;;;8.70;100.00;100138.39;1471676;88;21287;-76
2024/03/10 08:21:47;;;;;;;24.07;15.93;;;;;;;8.74;100.00;100137.62;1463677;88;21553;-77
2024/03/10 08:24:15;;;;;;;28.97;16.23;;;;;;;8.82;100.00;100143.02;1469758;88;21397;-77
2024/03/10 08:26:43;;;;;;;24.30;16.30;;;;;;;8.90;100.00;100144.45;1467758;88;21353;-77
2024/03/10 08:29:11;;;;;;;23.63;15.63;;;;;;;8.96;100.00;100137.77;1463888;88;21479;-76
2024/03/10 08:31:38;;;;;;;23.23;15.57;;;;;;;8.99;100.00;100135.67;1459939;88;21420;-77
2024/03/10 08:34:05;;;;;;;30.00;19.87;;;;;;;9.07;100.00;100131.48;1470087;88;22841;-77
2024/03/10 08:36:33;;;;;;;24.70;17.80;;;;;;;9.21;100.00;100125.73;1467793;88;21574;-78
2024/03/10 08:39:07;;;;;;;25.47;17.43;;;;;;;9.32;100.00;100126.86;1467375;88;21345;-78
2024/03/10 08:41:30;;;;;;;29.27;16.47;;;;;;;9.41;100.00;100122.02;1467477;88;21622;-78
2024/03/10 08:43:58;;;;;;;29.50;19.37;;;;;;;9.51;100.00;100115.83;1467944;88;21397;-77
2024/03/10 08:46:25;;;;;;;32.30;22.10;;;;;;;9.60;100.00;100117.58;1465531;88;21435;-77
2024/03/10 08:48:53;;;;;;;26.23;16.97;;;;;;;9.69;100.00;100114.04;1468306;88;21608;-76
2024/03/10 08:51:20;;;;;;;23.80;16.47;;;;;;;9.77;100.00;100122.05;1465626;88;21338;-77
2024/03/10 08:53:48;;;;;;;28.67;17.80;;;;;;;9.81;100.00;100121.26;1465619;88;22977;-78
2024/03/10 08:56:15;;;;;;;26.37;17.33;;;;;;;9.82;98.34;100118.48;1466426;88;21875;-77
2024/03/10 08:58:43;;;;;;;27.67;17.23;;;;;;;9.88;98.02;100117.88;1465541;88;21523;-78
2024/03/10 09:01:11;;;;;;;25.77;16.60;;;;;;;9.92;96.66;100113.94;1466337;88;22439;-78
2024/03/10 09:03:38;;;;;;;23.37;15.80;;;;;;;9.94;95.83;100111.98;1470995;88;21464;-78
2024/03/10 09:06:06;;;;;;;26.97;17.23;;;;;;;9.99;95.73;100113.36;1468510;88;21811;-78
2024/03/10 09:08:33;;;;;;;24.27;15.37;;;;;;;10.06;95.63;100122.33;1466913;88;21781;-78
2024/03/10 09:11:06;;;;;;;26.37;15.17;;;;;;;10.08;93.69;100113.77;1466014;88;22019;-77
2024/03/10 09:13:31;;;;;;;20.17;14.17;;;;;;;10.09;94.06;100109.62;1520992;88;21405;-77
2024/03/10 09:16:00;;;;;;;21.90;16.10;;;;;;;10.11;93.17;100114.78;1547639;88;21458;-78
2024/03/10 09:18:27;;;;;;;23.93;14.60;;;;;;;10.09;89.78;100120.70;1392818;88;21243;-77
2024/03/10 09:20:54;;;;;;;26.93;14.43;;;;;;;10.07;89.32;100114.73;1526878;88;21250;-78
2024/03/10 09:23:21;;;;;;;26.77;14.63;;;;;;;10.08;88.70;100120.38;1394175;88;22322;-77
2024/03/10 09:25:49;;;;;;;22.23;13.67;;;;;;;10.05;86.47;100120.68;1400479;88;21242;-78
2024/03/10 09:28:17;;;;;;;22.80;14.60;;;;;;;10.05;85.81;100119.36;1394167;88;21199;-78
2024/03/10 09:30:48;;;;;;;21.87;14.63;;;;;;;10.03;83.74;100112.05;1385712;88;21258;-77
2024/03/10 09:33:17;;;;;;;25.13;14.50;;;;;;;10.04;83.79;100111.92;1537146;88;21214;-78
2024/03/10 09:35:44;;;;;;;23.53;14.30;;;;;;;10.12;83.80;100113.78;1393143;88;22042;-77
2024/03/10 09:38:12;;;;;;;26.33;17.33;;;;;;;10.19;82.22;100113.53;1394368;88;21331;-77
2024/03/10 09:40:39;;;;;;;29.00;15.97;;;;;;;10.24;82.50;100119.66;1393053;88;21384;-78
2024/03/10 09:43:11;;;;;;;26.67;17.50;;;;;;;10.29;82.77;100112.97;1400115;88;21287;-77
2024/03/10 09:45:47;;;;;;;24.35;17.20;;;;;;;10.36;83.31;100112.70;1390565;90;22316;-77
2024/03/10 09:48:15;;;;;;;28.50;15.40;;;;;;;10.36;81.04;100114.53;1398027;88;21258;-77
2024/03/10 09:50:48;;;;;;;24.83;15.83;;;;;;;10.41;81.86;100115.37;1393395;88;21191;-77
2024/03/10 09:53:13;;;;;;;;;;;;;;;10.45;80.94;100118.89;1541494;88;22189;-78
2024/03/10 09:55:41;;;;;;;23.60;15.60;;;;;;;10.48;80.60;100121.72;1394487;88;20316;-78
2024/03/10 09:58:12;;;;;;;26.10;15.03;;;;;;;10.51;79.62;100118.77;1386152;88;21271;-77
2024/03/10 10:00:45;;;;;;;26.80;15.58;;;;;;;10.49;79.71;100118.08;1553696;88;21353;-78
2024/03/10 10:03:14;;;;;;;26.67;16.83;;;;;;;10.44;80.08;100117.70;1463902;90;21383;-77
2024/03/10 10:05:52;;;;;;;29.98;16.93;;;;;;;10.32;79.28;100104.72;1397178;88;21235;-78
2024/03/10 10:08:18;;;;;;;23.97;15.50;;;;;;;10.28;79.45;100103.88;1516445;88;22461;-79
2024/03/10 10:10:52;;;;;;;28.53;16.10;;;;;;;10.22;78.90;100097.85;1472671;88;21549;-77
2024/03/10 10:13:27;;;;;;;20.80;13.53;;;;;;;10.19;79.69;100095.52;1466812;88;21360;-77
2024/03/10 10:15:55;;;;;;;22.90;15.97;;;;;;;10.14;79.79;100093.31;1467375;88;21568;-78
2024/03/10 10:18:23;;;;;;;21.47;15.43;;;;;;;10.11;80.60;100083.05;1553640;88;21274;-77
2024/03/10 10:20:53;;;;;;;23.10;16.13;;;;;;;10.11;80.59;100080.41;1393506;88;21235;-77
2024/03/10 10:23:26;;;;;;;23.40;14.67;;;;;;;10.15;81.40;100077.28;1391489;88;21472;-77
2024/03/10 10:25:58;;;;;;;27.65;16.62;;;;;;;10.13;81.56;100073.16;1551484;88;21458;-78
2024/03/10 10:28:25;;;;;;;24.20;16.37;;;;;;;10.14;82.16;100073.48;1541742;88;21398;-77
2024/03/10 10:30:54;;;;;;;27.13;16.57;;;;;;;10.10;82.70;100068.17;1531927;88;22131;-78
2024/03/10 10:33:21;;;;;;;24.20;16.80;;;;;;;10.10;82.96;100063.71;1396436;88;21353;-77
2024/03/10 10:35:49;;;;;;;24.87;17.13;;;;;;;10.11;83.97;100069.83;1394045;88;21481;-78
2024/03/10 10:38:20;;;;;;;24.27;16.20;;;;;;;10.12;84.51;100064.37;1400081;88;21409;-77
2024/03/10 10:40:48;;;;;;;25.07;16.73;;;;;;;10.13;84.37;100057.29;1554159;88;21177;-79
2024/03/10 10:43:21;;;;;;;21.17;15.57;;;;;;;10.08;83.74;100060.87;1393074;88;21519;-78
2024/03/10 10:45:45;;;;;;;27.97;18.00;;;;;;;10.04;83.36;100066.97;1408028;88;21449;-77
2024/03/10 10:48:13;;;;;;;34.93;19.93;;;;;;;10.00;83.37;100070.06;1468078;88;21517;-77
2024/03/10 10:50:43;;;;;;;31.60;20.97;;;;;;;9.97;83.22;100073.84;1467619;88;21309;-77
2024/03/10 10:53:11;;;;;;;26.30;18.23;;;;;;;9.92;84.21;100066.35;1470387;88;22079;-77
2024/03/10 10:55:40;;;;;;;22.20;16.00;;;;;;;9.96;84.25;100066.90;1468620;88;21368;-77
2024/03/10 10:58:21;;;;;;;21.43;15.53;;;;;;;10.01;84.48;100063.78;1469293;88;21888;-77
2024/03/10 11:00:53;;;;;;;25.67;16.87;;;;;;;10.05;84.84;100069.12;1465229;88;21426;-77
2024/03/10 11:03:24;;;;;;;24.43;15.60;;;;;;;10.07;84.72;100067.98;1467548;88;21361;-76
2024/03/10 11:06:09;;;;;;;29.40;18.73;;;;;;;10.08;85.06;100063.52;1474751;88;21390;-76
2024/03/10 11:08:41;;;;;;;30.60;17.07;;;;;;;10.08;83.98;100048.98;1465632;88;21299;-75
2024/03/10 11:11:16;;;;;;;28.53;18.00;;;;;;;10.09;83.93;100061.20;1470239;88;21375;-73
2024/03/10 11:13:44;;;;;;;27.63;17.53;;;;;;;10.10;84.50;100062.39;1469426;88;22322;-75
2024/03/10 11:16:19;;;;;;;29.00;18.23;;;;;;;10.11;85.36;100054.78;1454193;88;21463;-75
2024/03/10 11:18:47;;;;;;;36.57;18.30;;;;;;;10.09;85.39;100057.23;1449656;88;21626;-75
2024/03/10 11:21:17;;;;;;;30.63;18.87;;;;;;;10.08;85.07;100042.38;1465202;88;22262;-76
2024/03/10 11:23:48;;;;;;;28.57;16.42;;;;;;;10.08;84.87;100044.52;1476856;88;21858;-75
2024/03/10 11:26:17;;;;;;;;;;;;;;;10.07;84.77;100036.72;1481468;88;21449;-76
2024/03/10 11:29:00;;;;;;;25.87;16.37;;;;;;;10.06;84.08;100029.78;1473715;88;20320;-76
2024/03/10 11:31:39;;;;;;;25.03;16.10;;;;;;;10.06;84.47;100025.32;1476988;88;21390;-76
2024/03/10 11:34:09;;;;;;;31.40;16.97;;;;;;;10.06;84.49;100020.53;1470430;88;22315;-76
2024/03/10 11:36:39;;;;;;;29.10;17.27;;;;;;;10.09;85.04;100017.58;1472701;88;21368;-76